sensor_id;sensor_type;location;lat;lon;timestamp;temperature;humidity
1602;DHT22;794;48.592;9.634;2023-01-19T00:00:38;-0.40;1.00
1602;DHT22;794;48.592;9.634;2023-01-19T00:03:05;-2.90;1.00
1602;DHT22;794;48.592;9.634;2023-01-19T00:05:40;-2.70;1.00
1602;DHT22;794;48.592;9.634;2023-01-19T00:08:08;-1.20;1.00
1602;DHT22;794;48.592;9.634;2023-01-19T00:10:40;-2.60;1.00
1602;DHT22;794;48.592;9.634;2023-01-19T00:13:07;-3.10;1.00
1602;DHT22;794;48.592;9.634;2023-01-19T00:15:34;-3.40;1.00
1602;DHT22;794;48.592;9.634;2023-01-19T00:18:01;-0.70;1.00
1602;DHT22;794;48.592;9.634;2023-01-19T00:20:28;-2.30;1.00
1602;DHT22;794;48.592;9.634;2023-01-19T00:22:56;-0.70;1.00
1602;DHT22;794;48.592;9.634;2023-01-19T00:25:25;-1.80;1.00
1602;DHT22;794;48.592;9.634;2023-01-19T00:27:52;-0.50;1.00
1602;DHT22;794;48.592;9.634;2023-01-19T00:32:46;-3.80;1.00
1602;DHT22;794;48.592;9.634;2023-01-19T00:35:13;-0.90;1.00
1602;DHT22;794;48.592;9.634;2023-01-19T00:37:40;-3.10;1.00
1602;DHT22;794;48.592;9.634;2023-01-19T00:40:11;-3.30;1.00
1602;DHT22;794;48.592;9.634;2023-01-19T00:42:39;-3.90;1.00
1602;DHT22;794;48.592;9.634;2023-01-19T00:45:06;-4.20;1.00
1602;DHT22;794;48.592;9.634;2023-01-19T00:47:34;-4.20;1.00
1602;DHT22;794;48.592;9.634;2023-01-19T00:50:01;-3.70;1.00
1602;DHT22;794;48.592;9.634;2023-01-19T00:52:28;-1.90;1.00
1602;DHT22;794;48.592;9.634;2023-01-19T00:54:55;-4.60;1.00
1602;DHT22;794;48.592;9.634;2023-01-19T00:57:22;-2.20;1.00
1602;DHT22;794;48.592;9.634;2023-01-19T00:59:50;-4.40;1.00
1602;DHT22;794;48.592;9.634;2023-01-19T01:02:17;-2.60;1.00
1602;DHT22;794;48.592;9.634;2023-01-19T01:04:44;-4.60;1.00
1602;DHT22;794;48.592;9.634;2023-01-19T01:07:11;-3.00;1.00
1602;DHT22;794;48.592;9.634;2023-01-19T01:09:38;-1.40;1.00
1602;DHT22;794;48.592;9.634;2023-01-19T01:12:06;-4.20;1.00
1602;DHT22;794;48.592;9.634;2023-01-19T01:14:33;-4.50;1.00
1602;DHT22;794;48.592;9.634;2023-01-19T01:17:01;-1.90;1.00
1602;DHT22;794;48.592;9.634;2023-01-19T01:19:28;-1.60;1.00
1602;DHT22;794;48.592;9.634;2023-01-19T01:24:22;-4.90;1.00
1602;DHT22;794;48.592;9.634;2023-01-19T01:26:49;-4.60;1.00
1602;DHT22;794;48.592;9.634;2023-01-19T01:31:43;-5.20;1.00
1602;DHT22;794;48.592;9.634;2023-01-19T01:34:11;-3.00;1.00
1602;DHT22;794;48.592;9.634;2023-01-19T01:36:38;-4.90;1.00
1602;DHT22;794;48.592;9.634;2023-01-19T01:39:06;-5.30;1.00
1602;DHT22;794;48.592;9.634;2023-01-19T01:41:33;-4.00;1.00
1602;DHT22;794;48.592;9.634;2023-01-19T01:44:00;-3.90;1.00
1602;DHT22;794;48.592;9.634;2023-01-19T01:46:31;-5.10;1.00
1602;DHT22;794;48.592;9.634;2023-01-19T01:49:03;-2.70;1.00
1602;DHT22;794;48.592;9.634;2023-01-19T01:51:35;-3.40;1.00
1602;DHT22;794;48.592;9.634;2023-01-19T01:54:10;-5.20;1.00
1602;DHT22;794;48.592;9.634;2023-01-19T01:56:40;-3.30;1.00
1602;DHT22;794;48.592;9.634;2023-01-19T01:59:11;-4.10;1.00
1602;DHT22;794;48.592;9.634;2023-01-19T02:01:48;-3.60;1.00
1602;DHT22;794;48.592;9.634;2023-01-19T02:04:33;-2.90;1.00
1602;DHT22;794;48.592;9.634;2023-01-19T02:07:01;-2.90;1.00
1602;DHT22;794;48.592;9.634;2023-01-19T02:09:46;-4.80;1.00
1602;DHT22;794;48.592;9.634;2023-01-19T02:12:31;-4.00;1.00
1602;DHT22;794;48.592;9.634;2023-01-19T02:15:17;-3.10;1.00
1602;DHT22;794;48.592;9.634;2023-01-19T02:17:45;-5.60;1.00
1602;DHT22;794;48.592;9.634;2023-01-19T02:20:12;-4.20;1.00
1602;DHT22;794;48.592;9.634;2023-01-19T02:22:44;-3.40;1.00
1602;DHT22;794;48.592;9.634;2023-01-19T02:25:15;-5.70;1.00
1602;DHT22;794;48.592;9.634;2023-01-19T02:27:44;-4.70;1.00
1602;DHT22;794;48.592;9.634;2023-01-19T02:30:12;-4.20;1.00
1602;DHT22;794;48.592;9.634;2023-01-19T02:32:41;-5.60;1.00
1602;DHT22;794;48.592;9.634;2023-01-19T02:35:09;-2.80;1.00
1602;DHT22;794;48.592;9.634;2023-01-19T02:37:36;-4.90;1.00
1602;DHT22;794;48.592;9.634;2023-01-19T02:40:09;-3.50;1.00
1602;DHT22;794;48.592;9.634;2023-01-19T02:42:41;-5.40;1.00
1602;DHT22;794;48.592;9.634;2023-01-19T02:45:10;-2.30;1.00
1602;DHT22;794;48.592;9.634;2023-01-19T02:47:42;-2.70;1.00
1602;DHT22;794;48.592;9.634;2023-01-19T02:50:32;-4.10;1.00
1602;DHT22;794;48.592;9.634;2023-01-19T02:53:20;-4.40;1.00
1602;DHT22;794;48.592;9.634;2023-01-19T02:55:54;-4.80;1.00
1602;DHT22;794;48.592;9.634;2023-01-19T02:58:32;-3.00;1.00
1602;DHT22;794;48.592;9.634;2023-01-19T03:01:08;-3.90;1.00
1602;DHT22;794;48.592;9.634;2023-01-19T03:03:44;-4.70;1.00
1602;DHT22;794;48.592;9.634;2023-01-19T03:06:23;-4.50;1.00
1602;DHT22;794;48.592;9.634;2023-01-19T03:08:53;-4.50;1.00
1602;DHT22;794;48.592;9.634;2023-01-19T03:11:24;-4.60;1.00
1602;DHT22;794;48.592;9.634;2023-01-19T03:13:58;-3.30;1.00
1602;DHT22;794;48.592;9.634;2023-01-19T03:16:31;-4.50;1.00
1602;DHT22;794;48.592;9.634;2023-01-19T03:19:07;-4.20;1.00
1602;DHT22;794;48.592;9.634;2023-01-19T03:21:36;-2.60;1.00
1602;DHT22;794;48.592;9.634;2023-01-19T03:24:05;-1.90;1.00
1602;DHT22;794;48.592;9.634;2023-01-19T03:26:37;-4.50;1.00
1602;DHT22;794;48.592;9.634;2023-01-19T03:29:07;-4.20;1.00
1602;DHT22;794;48.592;9.634;2023-01-19T03:31:37;-4.20;1.00
1602;DHT22;794;48.592;9.634;2023-01-19T03:34:07;-1.10;1.00
1602;DHT22;794;48.592;9.634;2023-01-19T03:36:39;-1.40;1.00
1602;DHT22;794;48.592;9.634;2023-01-19T03:39:09;-4.30;1.00
1602;DHT22;794;48.592;9.634;2023-01-19T03:41:38;-1.80;1.00
1602;DHT22;794;48.592;9.634;2023-01-19T03:44:08;-3.60;1.00
1602;DHT22;794;48.592;9.634;2023-01-19T03:46:37;-4.10;1.00
1602;DHT22;794;48.592;9.634;2023-01-19T03:49:04;-1.10;1.00
1602;DHT22;794;48.592;9.634;2023-01-19T03:51:35;-3.90;1.00
1602;DHT22;794;48.592;9.634;2023-01-19T03:54:02;-3.30;1.00
1602;DHT22;794;48.592;9.634;2023-01-19T03:56:30;-1.70;1.00
1602;DHT22;794;48.592;9.634;2023-01-19T03:59:14;-2.90;1.00
1602;DHT22;794;48.592;9.634;2023-01-19T04:01:43;-3.50;1.00
1602;DHT22;794;48.592;9.634;2023-01-19T04:04:10;-1.80;1.00
1602;DHT22;794;48.592;9.634;2023-01-19T04:06:38;-3.10;1.00
1602;DHT22;794;48.592;9.634;2023-01-19T04:09:05;-1.60;1.00
1602;DHT22;794;48.592;9.634;2023-01-19T04:11:33;-3.70;1.00
1602;DHT22;794;48.592;9.634;2023-01-19T04:14:00;-3.90;1.00
1602;DHT22;794;48.592;9.634;2023-01-19T04:16:27;-2.90;1.00
1602;DHT22;794;48.592;9.634;2023-01-19T04:18:55;-3.70;1.00
1602;DHT22;794;48.592;9.634;2023-01-19T04:21:22;-3.30;1.00
1602;DHT22;794;48.592;9.634;2023-01-19T04:23:49;-3.00;1.00
1602;DHT22;794;48.592;9.634;2023-01-19T04:26:18;-2.00;1.00
1602;DHT22;794;48.592;9.634;2023-01-19T04:28:44;-2.70;1.00
1602;DHT22;794;48.592;9.634;2023-01-19T04:31:11;-2.80;1.00
1602;DHT22;794;48.592;9.634;2023-01-19T04:33:38;-3.60;1.00
1602;DHT22;794;48.592;9.634;2023-01-19T04:36:07;-1.90;1.00
1602;DHT22;794;48.592;9.634;2023-01-19T04:38:35;-4.50;1.00
1602;DHT22;794;48.592;9.634;2023-01-19T04:41:02;-4.50;1.00
1602;DHT22;794;48.592;9.634;2023-01-19T04:43:29;-4.40;1.00
1602;DHT22;794;48.592;9.634;2023-01-19T04:45:56;-3.00;1.00
1602;DHT22;794;48.592;9.634;2023-01-19T04:48:23;-2.90;1.00
1602;DHT22;794;48.592;9.634;2023-01-19T04:50:50;-4.90;1.00
1602;DHT22;794;48.592;9.634;2023-01-19T04:53:19;-4.60;1.00
1602;DHT22;794;48.592;9.634;2023-01-19T04:55:46;-2.10;1.00
1602;DHT22;794;48.592;9.634;2023-01-19T04:58:13;-3.70;1.00
1602;DHT22;794;48.592;9.634;2023-01-19T05:00:40;-5.00;1.00
1602;DHT22;794;48.592;9.634;2023-01-19T05:03:07;-4.80;1.00
1602;DHT22;794;48.592;9.634;2023-01-19T05:05:34;-2.80;1.00
1602;DHT22;794;48.592;9.634;2023-01-19T05:08:01;-3.90;1.00
1602;DHT22;794;48.592;9.634;2023-01-19T05:10:29;-2.50;1.00
1602;DHT22;794;48.592;9.634;2023-01-19T05:12:56;-5.20;1.00
1602;DHT22;794;48.592;9.634;2023-01-19T05:15:23;-4.30;1.00
1602;DHT22;794;48.592;9.634;2023-01-19T05:17:50;-4.80;1.00
1602;DHT22;794;48.592;9.634;2023-01-19T05:20:17;-5.80;1.00
1602;DHT22;794;48.592;9.634;2023-01-19T05:22:48;-5.40;1.00
1602;DHT22;794;48.592;9.634;2023-01-19T05:25:16;-5.50;1.00
1602;DHT22;794;48.592;9.634;2023-01-19T05:27:44;-3.40;1.00
1602;DHT22;794;48.592;9.634;2023-01-19T05:30:12;-3.10;1.00
1602;DHT22;794;48.592;9.634;2023-01-19T05:32:39;-3.00;1.00
1602;DHT22;794;48.592;9.634;2023-01-19T05:35:07;-4.20;1.00
1602;DHT22;794;48.592;9.634;2023-01-19T05:37:34;-5.80;1.00
1602;DHT22;794;48.592;9.634;2023-01-19T05:40:01;-3.60;1.00
1602;DHT22;794;48.592;9.634;2023-01-19T05:42:28;-5.90;1.00
1602;DHT22;794;48.592;9.634;2023-01-19T05:44:57;-3.60;1.00
1602;DHT22;794;48.592;9.634;2023-01-19T05:47:24;-3.70;1.00
1602;DHT22;794;48.592;9.634;2023-01-19T05:49:51;-4.30;1.00
1602;DHT22;794;48.592;9.634;2023-01-19T05:52:18;-6.10;1.00
1602;DHT22;794;48.592;9.634;2023-01-19T05:54:46;-6.10;1.00
1602;DHT22;794;48.592;9.634;2023-01-19T05:57:13;-3.10;1.00
1602;DHT22;794;48.592;9.634;2023-01-19T05:59:40;-4.10;1.00
1602;DHT22;794;48.592;9.634;2023-01-19T06:02:08;-5.80;1.00
1602;DHT22;794;48.592;9.634;2023-01-19T06:04:35;-4.50;1.00
1602;DHT22;794;48.592;9.634;2023-01-19T06:07:04;-5.90;1.00
1602;DHT22;794;48.592;9.634;2023-01-19T06:09:31;-4.60;1.00
1602;DHT22;794;48.592;9.634;2023-01-19T06:11:58;-3.60;1.00
1602;DHT22;794;48.592;9.634;2023-01-19T06:14:25;-2.30;1.00
1602;DHT22;794;48.592;9.634;2023-01-19T06:16:52;-5.70;1.00
1602;DHT22;794;48.592;9.634;2023-01-19T06:19:20;-4.00;1.00
1602;DHT22;794;48.592;9.634;2023-01-19T06:21:48;-5.60;1.00
1602;DHT22;794;48.592;9.634;2023-01-19T06:29:11;-5.30;1.00
1602;DHT22;794;48.592;9.634;2023-01-19T06:31:39;-4.90;1.00
1602;DHT22;794;48.592;9.634;2023-01-19T06:34:06;-3.50;1.00
1602;DHT22;794;48.592;9.634;2023-01-19T06:36:35;-4.60;1.00
1602;DHT22;794;48.592;9.634;2023-01-19T06:39:03;-2.30;1.00
1602;DHT22;794;48.592;9.634;2023-01-19T06:41:31;-2.20;1.00
1602;DHT22;794;48.592;9.634;2023-01-19T06:43:58;-4.10;1.00
1602;DHT22;794;48.592;9.634;2023-01-19T06:46:25;-4.50;1.00
1602;DHT22;794;48.592;9.634;2023-01-19T06:48:53;-4.30;1.00
1602;DHT22;794;48.592;9.634;2023-01-19T06:51:20;-3.90;1.00
1602;DHT22;794;48.592;9.634;2023-01-19T06:53:48;-3.20;1.00
1602;DHT22;794;48.592;9.634;2023-01-19T06:56:15;-3.30;1.00
1602;DHT22;794;48.592;9.634;2023-01-19T06:58:42;-4.70;1.00
1602;DHT22;794;48.592;9.634;2023-01-19T07:01:09;-3.40;1.00
1602;DHT22;794;48.592;9.634;2023-01-19T07:03:36;-4.40;1.00
1602;DHT22;794;48.592;9.634;2023-01-19T07:06:04;-5.00;1.00
1602;DHT22;794;48.592;9.634;2023-01-19T07:08:32;-4.60;1.00
1602;DHT22;794;48.592;9.634;2023-01-19T07:11:01;-2.00;1.00
1602;DHT22;794;48.592;9.634;2023-01-19T07:13:31;-3.80;1.00
1602;DHT22;794;48.592;9.634;2023-01-19T07:15:57;-2.60;1.00
1602;DHT22;794;48.592;9.634;2023-01-19T07:18:24;-5.70;1.00
1602;DHT22;794;48.592;9.634;2023-01-19T07:20:51;-5.50;1.00
1602;DHT22;794;48.592;9.634;2023-01-19T07:23:18;-2.90;1.00
1602;DHT22;794;48.592;9.634;2023-01-19T07:28:15;-6.30;1.00
1602;DHT22;794;48.592;9.634;2023-01-19T07:30:42;-4.90;1.00
1602;DHT22;794;48.592;9.634;2023-01-19T07:33:11;-3.50;1.00
1602;DHT22;794;48.592;9.634;2023-01-19T07:35:38;-5.70;1.00
1602;DHT22;794;48.592;9.634;2023-01-19T07:38:05;-5.90;1.00
1602;DHT22;794;48.592;9.634;2023-01-19T07:40:32;-3.60;1.00
1602;DHT22;794;48.592;9.634;2023-01-19T07:42:59;-3.70;1.00
1602;DHT22;794;48.592;9.634;2023-01-19T07:45:27;-3.90;1.00
1602;DHT22;794;48.592;9.634;2023-01-19T07:47:54;-4.00;1.00
1602;DHT22;794;48.592;9.634;2023-01-19T07:50:21;-3.30;1.00
1602;DHT22;794;48.592;9.634;2023-01-19T07:52:52;-5.50;1.00
1602;DHT22;794;48.592;9.634;2023-01-19T07:55:19;-3.30;1.00
1602;DHT22;794;48.592;9.634;2023-01-19T07:57:47;-5.60;1.00
1602;DHT22;794;48.592;9.634;2023-01-19T08:00:16;-4.30;1.00
1602;DHT22;794;48.592;9.634;2023-01-19T08:02:47;-4.90;1.00
1602;DHT22;794;48.592;9.634;2023-01-19T08:05:16;-3.80;1.00
1602;DHT22;794;48.592;9.634;2023-01-19T08:07:43;-3.80;1.00
1602;DHT22;794;48.592;9.634;2023-01-19T08:10:11;-4.90;1.00
1602;DHT22;794;48.592;9.634;2023-01-19T08:15:08;-4.00;1.00
1602;DHT22;794;48.592;9.634;2023-01-19T08:17:35;-3.80;1.00
1602;DHT22;794;48.592;9.634;2023-01-19T08:20:05;-3.60;1.00
1602;DHT22;794;48.592;9.634;2023-01-19T08:22:33;-3.70;1.00
1602;DHT22;794;48.592;9.634;2023-01-19T08:25:01;-3.40;1.00
1602;DHT22;794;48.592;9.634;2023-01-19T08:27:27;-2.50;1.00
1602;DHT22;794;48.592;9.634;2023-01-19T08:29:55;-3.20;1.00
1602;DHT22;794;48.592;9.634;2023-01-19T08:32:23;-2.60;1.00
1602;DHT22;794;48.592;9.634;2023-01-19T08:34:51;-2.60;1.00
1602;DHT22;794;48.592;9.634;2023-01-19T08:37:19;-0.30;1.00
1602;DHT22;794;48.592;9.634;2023-01-19T08:39:46;-0.30;1.00
1602;DHT22;794;48.592;9.634;2023-01-19T08:42:13;-2.30;1.00
1602;DHT22;794;48.592;9.634;2023-01-19T08:44:40;-2.30;1.00
1602;DHT22;794;48.592;9.634;2023-01-19T08:47:07;-2.70;1.00
1602;DHT22;794;48.592;9.634;2023-01-19T08:49:34;-2.70;1.00
1602;DHT22;794;48.592;9.634;2023-01-19T08:52:01;-0.70;1.00
1602;DHT22;794;48.592;9.634;2023-01-19T08:54:30;-3.10;1.00
1602;DHT22;794;48.592;9.634;2023-01-19T08:56:57;-3.10;1.00
1602;DHT22;794;48.592;9.634;2023-01-19T08:59:24;-3.30;1.00
1602;DHT22;794;48.592;9.634;2023-01-19T09:01:51;-3.10;1.00
1602;DHT22;794;48.592;9.634;2023-01-19T09:04:18;-2.70;1.00
1602;DHT22;794;48.592;9.634;2023-01-19T09:06:45;-2.50;1.00
1602;DHT22;794;48.592;9.634;2023-01-19T09:09:12;-1.90;1.00
1602;DHT22;794;48.592;9.634;2023-01-19T09:11:41;0.00;1.00
1602;DHT22;794;48.592;9.634;2023-01-19T09:14:08;-1.50;1.00
1602;DHT22;794;48.592;9.634;2023-01-19T09:16:35;0.40;1.00
1602;DHT22;794;48.592;9.634;2023-01-19T09:19:02;-1.10;1.00
1602;DHT22;794;48.592;9.634;2023-01-19T09:21:29;1.00;1.00
1602;DHT22;794;48.592;9.634;2023-01-19T09:23:56;1.10;1.00
1602;DHT22;794;48.592;9.634;2023-01-19T09:26:23;2.00;1.00
1602;DHT22;794;48.592;9.634;2023-01-19T09:28:52;2.00;1.00
1602;DHT22;794;48.592;9.634;2023-01-19T09:31:19;0.00;1.00
1602;DHT22;794;48.592;9.634;2023-01-19T09:33:46;0.30;1.00
1602;DHT22;794;48.592;9.634;2023-01-19T09:36:14;2.00;1.00
1602;DHT22;794;48.592;9.634;2023-01-19T09:38:44;2.70;1.00
1602;DHT22;794;48.592;9.634;2023-01-19T09:41:17;0.40;1.00
1602;DHT22;794;48.592;9.634;2023-01-19T09:43:49;0.90;1.00
1602;DHT22;794;48.592;9.634;2023-01-19T09:46:21;1.60;1.00
1602;DHT22;794;48.592;9.634;2023-01-19T09:48:53;2.50;1.00
1602;DHT22;794;48.592;9.634;2023-01-19T09:51:27;0.80;1.00
1602;DHT22;794;48.592;9.634;2023-01-19T09:54:02;0.80;1.00
1602;DHT22;794;48.592;9.634;2023-01-19T09:56:31;1.00;1.00
1602;DHT22;794;48.592;9.634;2023-01-19T09:58:59;2.50;1.00
1602;DHT22;794;48.592;9.634;2023-01-19T10:01:33;2.20;1.00
1602;DHT22;794;48.592;9.634;2023-01-19T10:04:20;3.20;1.00
1602;DHT22;794;48.592;9.634;2023-01-19T10:07:02;1.30;1.00
1602;DHT22;794;48.592;9.634;2023-01-19T10:09:36;2.80;1.00
1602;DHT22;794;48.592;9.634;2023-01-19T10:12:10;2.60;1.00
1602;DHT22;794;48.592;9.634;2023-01-19T10:14:44;2.30;1.00
1602;DHT22;794;48.592;9.634;2023-01-19T10:17:23;0.60;1.00
1602;DHT22;794;48.592;9.634;2023-01-19T10:19:55;2.60;1.00
1602;DHT22;794;48.592;9.634;2023-01-19T10:22:24;2.60;1.00
1602;DHT22;794;48.592;9.634;2023-01-19T10:24:55;1.30;1.00
1602;DHT22;794;48.592;9.634;2023-01-19T10:27:25;1.60;1.00
1602;DHT22;794;48.592;9.634;2023-01-19T10:29:52;2.80;1.00
1602;DHT22;794;48.592;9.634;2023-01-19T10:32:23;3.80;1.00
1602;DHT22;794;48.592;9.634;2023-01-19T10:34:51;1.90;1.00
1602;DHT22;794;48.592;9.634;2023-01-19T10:37:27;2.20;1.00
1602;DHT22;794;48.592;9.634;2023-01-19T10:39:57;2.60;1.00
1602;DHT22;794;48.592;9.634;2023-01-19T10:42:28;3.00;1.00
1602;DHT22;794;48.592;9.634;2023-01-19T10:45:39;4.60;1.00
1602;DHT22;794;48.592;9.634;2023-01-19T10:48:11;3.10;1.00
1602;DHT22;794;48.592;9.634;2023-01-19T10:50:38;3.00;1.00
1602;DHT22;794;48.592;9.634;2023-01-19T10:53:18;3.30;1.00
1602;DHT22;794;48.592;9.634;2023-01-19T10:55:46;3.60;1.00
1602;DHT22;794;48.592;9.634;2023-01-19T10:58:27;3.90;1.00
1602;DHT22;794;48.592;9.634;2023-01-19T11:00:55;4.80;1.00
1602;DHT22;794;48.592;9.634;2023-01-19T11:03:39;3.60;1.00
1602;DHT22;794;48.592;9.634;2023-01-19T11:06:22;3.70;1.00
1602;DHT22;794;48.592;9.634;2023-01-19T11:08:51;4.10;1.00
1602;DHT22;794;48.592;9.634;2023-01-19T11:11:20;4.30;1.00
1602;DHT22;794;48.592;9.634;2023-01-19T11:14:05;4.00;1.00
1602;DHT22;794;48.592;9.634;2023-01-19T11:16:36;4.30;1.00
1602;DHT22;794;48.592;9.634;2023-01-19T11:19:18;4.70;1.00
1602;DHT22;794;48.592;9.634;2023-01-19T11:21:48;4.40;1.00
1602;DHT22;794;48.592;9.634;2023-01-19T11:24:15;4.80;1.00
1602;DHT22;794;48.592;9.634;2023-01-19T11:26:44;3.90;1.00
1602;DHT22;794;48.592;9.634;2023-01-19T11:29:18;5.70;1.00
1602;DHT22;794;48.592;9.634;2023-01-19T11:31:45;4.10;1.00
1602;DHT22;794;48.592;9.634;2023-01-19T11:34:30;4.40;1.00
1602;DHT22;794;48.592;9.634;2023-01-19T11:36:59;3.90;1.00
1602;DHT22;794;48.592;9.634;2023-01-19T11:39:28;3.80;1.00
1602;DHT22;794;48.592;9.634;2023-01-19T11:41:58;4.00;1.00
1602;DHT22;794;48.592;9.634;2023-01-19T11:44:29;4.10;1.00
1602;DHT22;794;48.592;9.634;2023-01-19T11:46:59;5.30;1.00
1602;DHT22;794;48.592;9.634;2023-01-19T11:49:37;3.90;1.00
1602;DHT22;794;48.592;9.634;2023-01-19T11:52:12;3.80;1.00
1602;DHT22;794;48.592;9.634;2023-01-19T11:54:46;3.70;1.00
1602;DHT22;794;48.592;9.634;2023-01-19T11:57:15;3.60;1.00
1602;DHT22;794;48.592;9.634;2023-01-19T11:59:44;4.80;1.00
1602;DHT22;794;48.592;9.634;2023-01-19T12:02:19;3.50;1.00
1602;DHT22;794;48.592;9.634;2023-01-19T12:04:54;3.80;1.00
1602;DHT22;794;48.592;9.634;2023-01-19T12:07:29;3.50;1.00
1602;DHT22;794;48.592;9.634;2023-01-19T12:10:06;3.70;1.00
1602;DHT22;794;48.592;9.634;2023-01-19T12:12:40;3.40;1.00
1602;DHT22;794;48.592;9.634;2023-01-19T12:15:19;3.70;1.00
1602;DHT22;794;48.592;9.634;2023-01-19T12:17:49;4.00;1.00
1602;DHT22;794;48.592;9.634;2023-01-19T12:20:24;2.30;1.00
1602;DHT22;794;48.592;9.634;2023-01-19T12:23:00;3.80;1.00
1602;DHT22;794;48.592;9.634;2023-01-19T12:25:40;4.60;1.00
1602;DHT22;794;48.592;9.634;2023-01-19T12:28:11;1.90;1.00
1602;DHT22;794;48.592;9.634;2023-01-19T12:30:39;4.60;1.00
1602;DHT22;794;48.592;9.634;2023-01-19T12:33:30;3.10;1.00
1602;DHT22;794;48.592;9.634;2023-01-19T12:36:03;3.60;1.00
1602;DHT22;794;48.592;9.634;2023-01-19T12:38:49;3.20;1.00
1602;DHT22;794;48.592;9.634;2023-01-19T12:41:20;2.30;1.00
1602;DHT22;794;48.592;9.634;2023-01-19T12:44:14;2.40;1.00
1602;DHT22;794;48.592;9.634;2023-01-19T12:46:44;2.80;1.00
1602;DHT22;794;48.592;9.634;2023-01-19T12:49:21;2.40;1.00
1602;DHT22;794;48.592;9.634;2023-01-19T12:51:52;3.80;1.00
1602;DHT22;794;48.592;9.634;2023-01-19T12:54:28;2.80;1.00
1602;DHT22;794;48.592;9.634;2023-01-19T12:56:58;2.50;1.00
1602;DHT22;794;48.592;9.634;2023-01-19T12:59:27;2.30;1.00
1602;DHT22;794;48.592;9.634;2023-01-19T13:02:35;3.60;1.00
1602;DHT22;794;48.592;9.634;2023-01-19T13:05:16;2.40;1.00
1602;DHT22;794;48.592;9.634;2023-01-19T13:08:22;2.50;1.00
1602;DHT22;794;48.592;9.634;2023-01-19T13:17:25;2.50;1.00
1602;DHT22;794;48.592;9.634;2023-01-19T13:20:17;2.80;1.00
1602;DHT22;794;48.592;9.634;2023-01-19T13:25:43;3.20;1.00
1602;DHT22;794;48.592;9.634;2023-01-19T13:28:14;4.60;1.00
1602;DHT22;794;48.592;9.634;2023-01-19T13:30:52;3.10;1.00
1602;DHT22;794;48.592;9.634;2023-01-19T13:33:23;1.60;1.00
1602;DHT22;794;48.592;9.634;2023-01-19T13:35:54;2.90;1.00
1602;DHT22;794;48.592;9.634;2023-01-19T13:38:24;2.70;1.00
1602;DHT22;794;48.592;9.634;2023-01-19T13:40:54;2.70;1.00
1602;DHT22;794;48.592;9.634;2023-01-19T13:43:26;2.30;1.00
1602;DHT22;794;48.592;9.634;2023-01-19T13:56:20;2.30;1.00
1602;DHT22;794;48.592;9.634;2023-01-19T13:59:03;1.60;1.00
1602;DHT22;794;48.592;9.634;2023-01-19T14:01:35;3.00;1.00
1602;DHT22;794;48.592;9.634;2023-01-19T14:04:02;3.30;1.00
1602;DHT22;794;48.592;9.634;2023-01-19T14:06:38;2.90;1.00
1602;DHT22;794;48.592;9.634;2023-01-19T14:09:09;2.60;1.00
1602;DHT22;794;48.592;9.634;2023-01-19T14:11:40;3.50;1.00
1602;DHT22;794;48.592;9.634;2023-01-19T14:14:21;2.90;1.00
1602;DHT22;794;48.592;9.634;2023-01-19T14:16:48;2.80;1.00
1602;DHT22;794;48.592;9.634;2023-01-19T14:19:16;3.30;1.00
1602;DHT22;794;48.592;9.634;2023-01-19T14:21:43;3.10;1.00
1602;DHT22;794;48.592;9.634;2023-01-19T14:24:16;4.10;1.00
1602;DHT22;794;48.592;9.634;2023-01-19T14:26:48;2.90;1.00
1602;DHT22;794;48.592;9.634;2023-01-19T14:29:21;3.10;1.00
1602;DHT22;794;48.592;9.634;2023-01-19T14:31:50;3.20;1.00
1602;DHT22;794;48.592;9.634;2023-01-19T14:34:31;3.30;1.00
1602;DHT22;794;48.592;9.634;2023-01-19T14:36:59;2.50;1.00
1602;DHT22;794;48.592;9.634;2023-01-19T14:39:28;2.40;1.00
1602;DHT22;794;48.592;9.634;2023-01-19T14:41:59;2.70;1.00
1602;DHT22;794;48.592;9.634;2023-01-19T14:44:29;3.10;1.00
1602;DHT22;794;48.592;9.634;2023-01-19T14:47:27;4.10;1.00
1602;DHT22;794;48.592;9.634;2023-01-19T14:49:57;1.90;1.00
1602;DHT22;794;48.592;9.634;2023-01-19T14:52:41;1.90;1.00
1602;DHT22;794;48.592;9.634;2023-01-19T14:55:18;2.20;1.00
1602;DHT22;794;48.592;9.634;2023-01-19T14:57:47;1.70;1.00
1602;DHT22;794;48.592;9.634;2023-01-19T15:00:16;2.20;1.00
1602;DHT22;794;48.592;9.634;2023-01-19T15:02:43;1.90;1.00
1602;DHT22;794;48.592;9.634;2023-01-19T15:05:10;3.90;1.00
1602;DHT22;794;48.592;9.634;2023-01-19T15:07:40;2.20;1.00
1602;DHT22;794;48.592;9.634;2023-01-19T15:10:14;2.10;1.00
1602;DHT22;794;48.592;9.634;2023-01-19T15:12:42;2.00;1.00
1602;DHT22;794;48.592;9.634;2023-01-19T15:15:16;2.30;1.00
1602;DHT22;794;48.592;9.634;2023-01-19T15:17:44;3.30;1.00
1602;DHT22;794;48.592;9.634;2023-01-19T15:20:14;2.90;1.00
1602;DHT22;794;48.592;9.634;2023-01-19T15:22:42;2.00;1.00
1602;DHT22;794;48.592;9.634;2023-01-19T15:25:12;2.00;1.00
1602;DHT22;794;48.592;9.634;2023-01-19T15:27:39;3.70;1.00
1602;DHT22;794;48.592;9.634;2023-01-19T15:30:13;1.80;1.00
1602;DHT22;794;48.592;9.634;2023-01-19T15:32:41;1.80;1.00
1602;DHT22;794;48.592;9.634;2023-01-19T15:35:13;1.90;1.00
1602;DHT22;794;48.592;9.634;2023-01-19T15:37:40;3.00;1.00
1602;DHT22;794;48.592;9.634;2023-01-19T15:40:10;2.10;1.00
1602;DHT22;794;48.592;9.634;2023-01-19T15:42:37;2.00;1.00
1602;DHT22;794;48.592;9.634;2023-01-19T15:45:32;2.10;1.00
1602;DHT22;794;48.592;9.634;2023-01-19T15:48:02;1.60;1.00
1602;DHT22;794;48.592;9.634;2023-01-19T15:50:32;3.20;1.00
1602;DHT22;794;48.592;9.634;2023-01-19T15:52:59;1.30;1.00
1602;DHT22;794;48.592;9.634;2023-01-19T15:55:26;3.20;1.00
1602;DHT22;794;48.592;9.634;2023-01-19T15:57:53;1.80;1.00
1602;DHT22;794;48.592;9.634;2023-01-19T16:00:26;2.30;1.00
1602;DHT22;794;48.592;9.634;2023-01-19T16:02:53;3.40;1.00
1602;DHT22;794;48.592;9.634;2023-01-19T16:05:21;2.50;1.00
1602;DHT22;794;48.592;9.634;2023-01-19T16:07:48;2.90;1.00
1602;DHT22;794;48.592;9.634;2023-01-19T16:10:16;2.10;1.00
1602;DHT22;794;48.592;9.634;2023-01-19T16:12:43;1.30;1.00
1602;DHT22;794;48.592;9.634;2023-01-19T16:15:11;1.10;1.00
1602;DHT22;794;48.592;9.634;2023-01-19T16:17:38;0.80;1.00
1602;DHT22;794;48.592;9.634;2023-01-19T16:20:06;2.80;1.00
1602;DHT22;794;48.592;9.634;2023-01-19T16:22:35;0.70;1.00
1602;DHT22;794;48.592;9.634;2023-01-19T16:25:03;0.70;1.00
1602;DHT22;794;48.592;9.634;2023-01-19T16:27:30;1.30;1.00
1602;DHT22;794;48.592;9.634;2023-01-19T16:29:57;0.80;1.00
1602;DHT22;794;48.592;9.634;2023-01-19T16:32:29;0.70;1.00
1602;DHT22;794;48.592;9.634;2023-01-19T16:34:56;1.60;1.00
1602;DHT22;794;48.592;9.634;2023-01-19T16:37:24;2.30;1.00
1602;DHT22;794;48.592;9.634;2023-01-19T16:39:52;0.60;1.00
1602;DHT22;794;48.592;9.634;2023-01-19T16:42:19;0.90;1.00
1602;DHT22;794;48.592;9.634;2023-01-19T16:44:46;1.10;1.00
1602;DHT22;794;48.592;9.634;2023-01-19T16:47:13;1.20;1.00
1602;DHT22;794;48.592;9.634;2023-01-19T16:49:40;0.60;1.00
1602;DHT22;794;48.592;9.634;2023-01-19T16:52:07;0.70;1.00
1602;DHT22;794;48.592;9.634;2023-01-19T16:54:34;0.70;1.00
1602;DHT22;794;48.592;9.634;2023-01-19T16:57:03;0.80;1.00
1602;DHT22;794;48.592;9.634;2023-01-19T16:59:30;2.00;1.00
1602;DHT22;794;48.592;9.634;2023-01-19T17:01:57;0.70;1.00
1602;DHT22;794;48.592;9.634;2023-01-19T18:04:29;-0.60;1.00
1602;DHT22;794;48.592;9.634;2023-01-19T18:06:57;-0.70;1.00
1602;DHT22;794;48.592;9.634;2023-01-19T18:09:24;-0.70;1.00
1602;DHT22;794;48.592;9.634;2023-01-19T18:11:51;-0.50;1.00
1602;DHT22;794;48.592;9.634;2023-01-19T18:14:18;1.20;1.00
1602;DHT22;794;48.592;9.634;2023-01-19T18:16:45;1.00;1.00
1602;DHT22;794;48.592;9.634;2023-01-19T18:29:08;-1.10;1.00
1602;DHT22;794;48.592;9.634;2023-01-19T18:31:35;0.60;1.00
1602;DHT22;794;48.592;9.634;2023-01-19T18:34:02;-0.90;1.00
1602;DHT22;794;48.592;9.634;2023-01-19T18:36:29;0.30;1.00
1602;DHT22;794;48.592;9.634;2023-01-19T18:38:59;-1.30;1.00
1602;DHT22;794;48.592;9.634;2023-01-19T18:41:26;0.60;1.00
1602;DHT22;794;48.592;9.634;2023-01-19T18:43:56;-0.30;1.00
1602;DHT22;794;48.592;9.634;2023-01-19T18:46:25;-1.70;1.00
1602;DHT22;794;48.592;9.634;2023-01-19T18:48:52;-0.80;1.00